FQNC

Details ICAO FQNC (MNC)
Name NACALA
Region Mozambique
Timezone Africa/Maputo (UTC+2.0)
Plans Departing 4
Arriving 5
Stats Elevation 410 ft / 125 m (AMSL)
Location -14.488233° 40.712250°
Runways 1
Magnetic Variation 8.159° W
Sunrise 2017-12-11 02:42:51 UTC / 2017-12-11 04:42:51 Local
Sunset 2017-12-11 15:40:46 UTC / 2017-12-11 17:40:46 Local
Advertisement - Login to hide

Runways

ID Width Length Bearing (true) Bearing (mag) Surface Threshold Offset Overrun Length
02 148 ft / 45 m 8,248 ft / 2,514 m 4.51° 12.67° Asphalt 0 ft / 0 m 0 ft / 0 m
20 148 ft / 45 m 8,248 ft / 2,514 m 184.51° 192.67° Asphalt 0 ft / 0 m 0 ft / 0 m

Map

Weather


0- 5 10 15 20 25 30 35+ Temperature / ° C

Clouds and Precipitation
Forecast for 2017-12-11 18:00 UTC. Updated 7 minutes ago

Ground ~20,000 ft ~40,000 ft Winds

METAR

Not found

TAF

TAF FQNC 111000Z 1112/1218 09010KT 9999 SCT015 BKN018 FEW020CB PROB30 TEMPO 1118/1120 4000 TSRA SCT010 BKN018 FEW020CB BECMG 1200/1202 VRB03KT BECMG 1206/1208 09006KT BKN020 TN21/1203Z TX29/1113Z
Warning: Do not use this data for real-world aviation or navigation. No guarantee of current accuracy is given.